sensor_id;sensor_type;location;lat;lon;timestamp;P1;durP1;ratioP1;P2;durP2;ratioP2
51612;SDS011;37694;51.748;14.326;2024-01-11T00:01:25;43.65;;;28.10;;
51612;SDS011;37694;51.748;14.326;2024-01-11T00:03:50;42.40;;;28.02;;
51612;SDS011;37694;51.748;14.326;2024-01-11T00:06:16;40.97;;;27.60;;
51612;SDS011;37694;51.748;14.326;2024-01-11T00:08:42;37.53;;;27.67;;
51612;SDS011;37694;51.748;14.326;2024-01-11T00:11:08;38.55;;;28.50;;
51612;SDS011;37694;51.748;14.326;2024-01-11T00:13:33;40.25;;;28.35;;
51612;SDS011;37694;51.748;14.326;2024-01-11T00:15:59;41.85;;;29.20;;
51612;SDS011;37694;51.748;14.326;2024-01-11T00:18:24;40.30;;;28.15;;
51612;SDS011;37694;51.748;14.326;2024-01-11T00:20:50;41.33;;;28.15;;
51612;SDS011;37694;51.748;14.326;2024-01-11T00:23:16;38.70;;;27.25;;
51612;SDS011;37694;51.748;14.326;2024-01-11T00:25:42;38.50;;;27.60;;
51612;SDS011;37694;51.748;14.326;2024-01-11T00:28:08;38.50;;;26.83;;
51612;SDS011;37694;51.748;14.326;2024-01-11T00:30:33;42.22;;;29.00;;
51612;SDS011;37694;51.748;14.326;2024-01-11T00:32:59;40.10;;;29.40;;
51612;SDS011;37694;51.748;14.326;2024-01-11T00:35:25;41.80;;;28.48;;
51612;SDS011;37694;51.748;14.326;2024-01-11T00:37:50;44.60;;;30.45;;
51612;SDS011;37694;51.748;14.326;2024-01-11T00:40:16;38.70;;;28.02;;
51612;SDS011;37694;51.748;14.326;2024-01-11T00:42:42;40.58;;;28.00;;
51612;SDS011;37694;51.748;14.326;2024-01-11T00:45:07;43.80;;;29.05;;
51612;SDS011;37694;51.748;14.326;2024-01-11T00:47:33;41.90;;;30.00;;
51612;SDS011;37694;51.748;14.326;2024-01-11T00:49:59;43.92;;;30.38;;
51612;SDS011;37694;51.748;14.326;2024-01-11T00:52:25;45.67;;;28.85;;
51612;SDS011;37694;51.748;14.326;2024-01-11T00:54:50;42.10;;;29.00;;
51612;SDS011;37694;51.748;14.326;2024-01-11T00:57:16;40.50;;;28.95;;
51612;SDS011;37694;51.748;14.326;2024-01-11T00:59:41;39.58;;;27.95;;
51612;SDS011;37694;51.748;14.326;2024-01-11T01:02:07;44.97;;;29.65;;
51612;SDS011;37694;51.748;14.326;2024-01-11T01:04:33;38.83;;;28.58;;
51612;SDS011;37694;51.748;14.326;2024-01-11T01:07:02;42.90;;;29.05;;
51612;SDS011;37694;51.748;14.326;2024-01-11T01:09:27;41.80;;;28.65;;
51612;SDS011;37694;51.748;14.326;2024-01-11T01:11:53;44.50;;;28.83;;
51612;SDS011;37694;51.748;14.326;2024-01-11T01:14:19;41.28;;;27.90;;
51612;SDS011;37694;51.748;14.326;2024-01-11T01:16:45;37.10;;;26.60;;
51612;SDS011;37694;51.748;14.326;2024-01-11T01:19:10;41.70;;;28.60;;
51612;SDS011;37694;51.748;14.326;2024-01-11T01:21:36;39.50;;;28.00;;
51612;SDS011;37694;51.748;14.326;2024-01-11T01:24:02;39.72;;;28.45;;
51612;SDS011;37694;51.748;14.326;2024-01-11T01:26:28;40.60;;;28.60;;
51612;SDS011;37694;51.748;14.326;2024-01-11T01:28:54;39.72;;;28.23;;
51612;SDS011;37694;51.748;14.326;2024-01-11T01:31:19;40.35;;;27.20;;
51612;SDS011;37694;51.748;14.326;2024-01-11T01:33:46;40.97;;;28.05;;
51612;SDS011;37694;51.748;14.326;2024-01-11T01:36:12;36.45;;;27.77;;
51612;SDS011;37694;51.748;14.326;2024-01-11T01:38:37;39.67;;;28.15;;
51612;SDS011;37694;51.748;14.326;2024-01-11T01:41:03;40.75;;;27.55;;
51612;SDS011;37694;51.748;14.326;2024-01-11T01:43:29;37.17;;;28.02;;
51612;SDS011;37694;51.748;14.326;2024-01-11T01:45:54;39.83;;;27.23;;
51612;SDS011;37694;51.748;14.326;2024-01-11T01:48:20;40.00;;;28.42;;
51612;SDS011;37694;51.748;14.326;2024-01-11T01:50:47;40.33;;;27.10;;
51612;SDS011;37694;51.748;14.326;2024-01-11T01:53:17;38.15;;;27.25;;
51612;SDS011;37694;51.748;14.326;2024-01-11T01:55:44;39.17;;;27.85;;
51612;SDS011;37694;51.748;14.326;2024-01-11T01:58:11;38.42;;;27.65;;
51612;SDS011;37694;51.748;14.326;2024-01-11T02:00:37;42.20;;;27.98;;
51612;SDS011;37694;51.748;14.326;2024-01-11T02:03:03;40.97;;;28.08;;
51612;SDS011;37694;51.748;14.326;2024-01-11T02:05:29;36.83;;;26.50;;
51612;SDS011;37694;51.748;14.326;2024-01-11T02:07:55;37.92;;;28.02;;
51612;SDS011;37694;51.748;14.326;2024-01-11T02:10:22;40.88;;;29.42;;
51612;SDS011;37694;51.748;14.326;2024-01-11T02:12:49;42.10;;;28.70;;
51612;SDS011;37694;51.748;14.326;2024-01-11T02:15:15;38.53;;;27.25;;
51612;SDS011;37694;51.748;14.326;2024-01-11T02:17:41;38.75;;;27.52;;
51612;SDS011;37694;51.748;14.326;2024-01-11T02:20:07;38.38;;;25.92;;
51612;SDS011;37694;51.748;14.326;2024-01-11T02:22:36;40.95;;;28.23;;
51612;SDS011;37694;51.748;14.326;2024-01-11T02:25:05;38.17;;;27.98;;
51612;SDS011;37694;51.748;14.326;2024-01-11T02:27:44;39.58;;;27.63;;
51612;SDS011;37694;51.748;14.326;2024-01-11T02:30:10;40.35;;;27.30;;
51612;SDS011;37694;51.748;14.326;2024-01-11T02:32:36;34.90;;;26.20;;
51612;SDS011;37694;51.748;14.326;2024-01-11T02:35:03;38.70;;;27.65;;
51612;SDS011;37694;51.748;14.326;2024-01-11T02:37:29;37.50;;;26.70;;
51612;SDS011;37694;51.748;14.326;2024-01-11T02:39:55;38.55;;;26.35;;
51612;SDS011;37694;51.748;14.326;2024-01-11T02:42:21;40.83;;;28.13;;
51612;SDS011;37694;51.748;14.326;2024-01-11T02:44:46;40.95;;;27.67;;
51612;SDS011;37694;51.748;14.326;2024-01-11T02:47:12;37.58;;;27.77;;
51612;SDS011;37694;51.748;14.326;2024-01-11T02:49:38;37.00;;;26.52;;
51612;SDS011;37694;51.748;14.326;2024-01-11T02:52:04;42.88;;;29.10;;
51612;SDS011;37694;51.748;14.326;2024-01-11T02:54:30;39.35;;;26.90;;
51612;SDS011;37694;51.748;14.326;2024-01-11T02:56:55;38.33;;;25.65;;
51612;SDS011;37694;51.748;14.326;2024-01-11T02:59:22;34.60;;;25.88;;
51612;SDS011;37694;51.748;14.326;2024-01-11T03:01:49;39.97;;;26.05;;
51612;SDS011;37694;51.748;14.326;2024-01-11T03:04:15;37.95;;;27.45;;
51612;SDS011;37694;51.748;14.326;2024-01-11T03:06:41;35.72;;;26.17;;
51612;SDS011;37694;51.748;14.326;2024-01-11T03:09:07;37.10;;;26.23;;
51612;SDS011;37694;51.748;14.326;2024-01-11T03:11:33;37.80;;;26.48;;
51612;SDS011;37694;51.748;14.326;2024-01-11T03:13:58;37.95;;;25.10;;
51612;SDS011;37694;51.748;14.326;2024-01-11T03:16:24;38.53;;;26.35;;
51612;SDS011;37694;51.748;14.326;2024-01-11T03:18:50;36.35;;;26.48;;
51612;SDS011;37694;51.748;14.326;2024-01-11T03:21:16;35.22;;;25.70;;
51612;SDS011;37694;51.748;14.326;2024-01-11T03:23:41;32.22;;;25.30;;
51612;SDS011;37694;51.748;14.326;2024-01-11T03:26:16;35.00;;;24.33;;
51612;SDS011;37694;51.748;14.326;2024-01-11T03:28:43;38.55;;;26.85;;
51612;SDS011;37694;51.748;14.326;2024-01-11T03:31:09;37.38;;;26.35;;
51612;SDS011;37694;51.748;14.326;2024-01-11T03:33:35;35.47;;;26.17;;
51612;SDS011;37694;51.748;14.326;2024-01-11T03:36:10;38.55;;;26.00;;
51612;SDS011;37694;51.748;14.326;2024-01-11T03:38:36;36.20;;;26.70;;
51612;SDS011;37694;51.748;14.326;2024-01-11T03:41:06;36.45;;;25.63;;
51612;SDS011;37694;51.748;14.326;2024-01-11T03:43:38;39.47;;;25.63;;
51612;SDS011;37694;51.748;14.326;2024-01-11T03:46:04;37.10;;;26.33;;
51612;SDS011;37694;51.748;14.326;2024-01-11T03:48:30;38.55;;;26.67;;
51612;SDS011;37694;51.748;14.326;2024-01-11T03:50:56;38.35;;;27.13;;
51612;SDS011;37694;51.748;14.326;2024-01-11T03:53:22;38.05;;;26.45;;
51612;SDS011;37694;51.748;14.326;2024-01-11T03:55:48;36.70;;;26.00;;
51612;SDS011;37694;51.748;14.326;2024-01-11T03:58:13;36.03;;;26.33;;
51612;SDS011;37694;51.748;14.326;2024-01-11T04:00:39;38.97;;;24.90;;
51612;SDS011;37694;51.748;14.326;2024-01-11T04:03:06;36.38;;;25.95;;
51612;SDS011;37694;51.748;14.326;2024-01-11T04:05:32;35.67;;;24.88;;
51612;SDS011;37694;51.748;14.326;2024-01-11T04:07:57;39.72;;;25.52;;
51612;SDS011;37694;51.748;14.326;2024-01-11T04:10:23;36.15;;;25.10;;
51612;SDS011;37694;51.748;14.326;2024-01-11T04:12:49;35.00;;;24.65;;
51612;SDS011;37694;51.748;14.326;2024-01-11T04:15:14;33.30;;;24.20;;
51612;SDS011;37694;51.748;14.326;2024-01-11T04:17:40;34.38;;;24.30;;
51612;SDS011;37694;51.748;14.326;2024-01-11T04:20:06;31.80;;;23.25;;
51612;SDS011;37694;51.748;14.326;2024-01-11T04:22:33;36.63;;;24.08;;
51612;SDS011;37694;51.748;14.326;2024-01-11T04:24:59;34.60;;;24.38;;
51612;SDS011;37694;51.748;14.326;2024-01-11T04:27:25;31.83;;;24.65;;
51612;SDS011;37694;51.748;14.326;2024-01-11T04:29:51;34.50;;;24.40;;
51612;SDS011;37694;51.748;14.326;2024-01-11T04:32:17;34.72;;;24.55;;
51612;SDS011;37694;51.748;14.326;2024-01-11T04:34:42;34.70;;;23.63;;
51612;SDS011;37694;51.748;14.326;2024-01-11T04:37:08;33.88;;;23.73;;
51612;SDS011;37694;51.748;14.326;2024-01-11T04:39:34;32.97;;;23.90;;
51612;SDS011;37694;51.748;14.326;2024-01-11T04:41:59;31.92;;;22.58;;
51612;SDS011;37694;51.748;14.326;2024-01-11T04:44:28;31.70;;;23.48;;
51612;SDS011;37694;51.748;14.326;2024-01-11T04:46:54;31.23;;;23.45;;
51612;SDS011;37694;51.748;14.326;2024-01-11T04:49:19;31.75;;;22.23;;
51612;SDS011;37694;51.748;14.326;2024-01-11T04:51:45;31.95;;;23.05;;
51612;SDS011;37694;51.748;14.326;2024-01-11T04:54:11;29.40;;;22.75;;
51612;SDS011;37694;51.748;14.326;2024-01-11T04:56:36;32.28;;;23.40;;
51612;SDS011;37694;51.748;14.326;2024-01-11T04:59:02;32.30;;;23.85;;
51612;SDS011;37694;51.748;14.326;2024-01-11T05:01:28;31.02;;;23.23;;
51612;SDS011;37694;51.748;14.326;2024-01-11T05:03:53;30.50;;;21.58;;
51612;SDS011;37694;51.748;14.326;2024-01-11T05:06:19;31.25;;;23.02;;
51612;SDS011;37694;51.748;14.326;2024-01-11T05:08:48;30.08;;;23.42;;
51612;SDS011;37694;51.748;14.326;2024-01-11T05:13:47;34.83;;;23.33;;
51612;SDS011;37694;51.748;14.326;2024-01-11T05:16:23;31.67;;;23.13;;
51612;SDS011;37694;51.748;14.326;2024-01-11T05:18:50;29.05;;;22.20;;
51612;SDS011;37694;51.748;14.326;2024-01-11T05:21:17;31.20;;;21.38;;
51612;SDS011;37694;51.748;14.326;2024-01-11T05:23:43;31.52;;;23.27;;
51612;SDS011;37694;51.748;14.326;2024-01-11T05:26:09;32.88;;;21.75;;
51612;SDS011;37694;51.748;14.326;2024-01-11T05:28:35;30.30;;;22.65;;
51612;SDS011;37694;51.748;14.326;2024-01-11T05:31:03;31.52;;;22.20;;
51612;SDS011;37694;51.748;14.326;2024-01-11T05:33:34;29.27;;;21.58;;
51612;SDS011;37694;51.748;14.326;2024-01-11T05:36:00;29.75;;;21.73;;
51612;SDS011;37694;51.748;14.326;2024-01-11T05:38:26;30.73;;;20.88;;
51612;SDS011;37694;51.748;14.326;2024-01-11T05:40:51;35.85;;;20.40;;
51612;SDS011;37694;51.748;14.326;2024-01-11T05:43:17;33.53;;;20.25;;
51612;SDS011;37694;51.748;14.326;2024-01-11T05:45:42;38.40;;;21.35;;
51612;SDS011;37694;51.748;14.326;2024-01-11T05:48:10;41.40;;;20.73;;
51612;SDS011;37694;51.748;14.326;2024-01-11T05:50:36;30.55;;;20.67;;
51612;SDS011;37694;51.748;14.326;2024-01-11T05:53:02;47.72;;;21.95;;
51612;SDS011;37694;51.748;14.326;2024-01-11T05:55:28;42.60;;;21.52;;
51612;SDS011;37694;51.748;14.326;2024-01-11T05:57:53;54.08;;;23.33;;
51612;SDS011;37694;51.748;14.326;2024-01-11T06:00:19;41.58;;;20.88;;
51612;SDS011;37694;51.748;14.326;2024-01-11T06:02:45;43.90;;;22.65;;
51612;SDS011;37694;51.748;14.326;2024-01-11T06:05:11;46.10;;;21.30;;
51612;SDS011;37694;51.748;14.326;2024-01-11T06:07:40;48.35;;;21.13;;
51612;SDS011;37694;51.748;14.326;2024-01-11T06:10:06;49.53;;;22.52;;
51612;SDS011;37694;51.748;14.326;2024-01-11T06:12:33;39.25;;;20.42;;
51612;SDS011;37694;51.748;14.326;2024-01-11T06:15:00;39.88;;;20.02;;
51612;SDS011;37694;51.748;14.326;2024-01-11T06:17:26;41.67;;;19.33;;
51612;SDS011;37694;51.748;14.326;2024-01-11T06:19:52;52.30;;;20.15;;
51612;SDS011;37694;51.748;14.326;2024-01-11T06:22:17;37.17;;;20.02;;
51612;SDS011;37694;51.748;14.326;2024-01-11T06:24:43;41.15;;;18.88;;
51612;SDS011;37694;51.748;14.326;2024-01-11T06:27:09;33.33;;;19.13;;
51612;SDS011;37694;51.748;14.326;2024-01-11T06:29:35;41.08;;;18.98;;
51612;SDS011;37694;51.748;14.326;2024-01-11T06:32:00;32.70;;;18.88;;
51612;SDS011;37694;51.748;14.326;2024-01-11T06:34:27;36.33;;;20.95;;
51612;SDS011;37694;51.748;14.326;2024-01-11T06:36:53;36.40;;;19.40;;
51612;SDS011;37694;51.748;14.326;2024-01-11T06:39:19;35.47;;;19.52;;
51612;SDS011;37694;51.748;14.326;2024-01-11T06:41:45;40.00;;;20.73;;
51612;SDS011;37694;51.748;14.326;2024-01-11T06:44:11;39.67;;;20.85;;
51612;SDS011;37694;51.748;14.326;2024-01-11T06:46:37;36.67;;;19.90;;
51612;SDS011;37694;51.748;14.326;2024-01-11T06:49:05;43.45;;;22.73;;
51612;SDS011;37694;51.748;14.326;2024-01-11T06:51:31;32.67;;;21.15;;
51612;SDS011;37694;51.748;14.326;2024-01-11T06:53:56;45.60;;;21.23;;
51612;SDS011;37694;51.748;14.326;2024-01-11T06:56:22;37.53;;;20.08;;
51612;SDS011;37694;51.748;14.326;2024-01-11T06:58:48;33.28;;;19.95;;
51612;SDS011;37694;51.748;14.326;2024-01-11T07:01:15;33.88;;;20.83;;
51612;SDS011;37694;51.748;14.326;2024-01-11T07:03:40;32.97;;;20.02;;
51612;SDS011;37694;51.748;14.326;2024-01-11T07:06:06;29.50;;;18.77;;
51612;SDS011;37694;51.748;14.326;2024-01-11T07:08:32;32.00;;;20.00;;
51612;SDS011;37694;51.748;14.326;2024-01-11T07:11:00;47.13;;;20.67;;
51612;SDS011;37694;51.748;14.326;2024-01-11T07:13:27;30.80;;;19.55;;
51612;SDS011;37694;51.748;14.326;2024-01-11T07:15:53;32.70;;;20.17;;
51612;SDS011;37694;51.748;14.326;2024-01-11T07:18:20;34.72;;;20.33;;
51612;SDS011;37694;51.748;14.326;2024-01-11T07:20:46;35.42;;;19.98;;
51612;SDS011;37694;51.748;14.326;2024-01-11T07:23:13;31.75;;;18.15;;
51612;SDS011;37694;51.748;14.326;2024-01-11T07:25:39;32.28;;;20.95;;
51612;SDS011;37694;51.748;14.326;2024-01-11T07:28:05;30.05;;;19.17;;
51612;SDS011;37694;51.748;14.326;2024-01-11T07:30:32;36.80;;;20.65;;
51612;SDS011;37694;51.748;14.326;2024-01-11T07:32:57;29.52;;;18.85;;
51612;SDS011;37694;51.748;14.326;2024-01-11T07:35:23;31.10;;;18.65;;
51612;SDS011;37694;51.748;14.326;2024-01-11T07:37:48;27.48;;;18.35;;
51612;SDS011;37694;51.748;14.326;2024-01-11T07:40:15;26.85;;;18.20;;
51612;SDS011;37694;51.748;14.326;2024-01-11T07:42:41;31.38;;;18.50;;
51612;SDS011;37694;51.748;14.326;2024-01-11T07:45:08;29.00;;;19.23;;
51612;SDS011;37694;51.748;14.326;2024-01-11T07:47:37;30.67;;;19.80;;
51612;SDS011;37694;51.748;14.326;2024-01-11T07:50:06;32.78;;;20.58;;
51612;SDS011;37694;51.748;14.326;2024-01-11T07:52:34;30.38;;;20.48;;
51612;SDS011;37694;51.748;14.326;2024-01-11T07:55:01;32.05;;;20.05;;
51612;SDS011;37694;51.748;14.326;2024-01-11T07:57:33;32.00;;;19.25;;
51612;SDS011;37694;51.748;14.326;2024-01-11T07:59:59;31.67;;;20.25;;
51612;SDS011;37694;51.748;14.326;2024-01-11T08:02:26;30.02;;;19.13;;
51612;SDS011;37694;51.748;14.326;2024-01-11T08:04:52;30.88;;;20.63;;
51612;SDS011;37694;51.748;14.326;2024-01-11T08:07:17;28.30;;;19.05;;
51612;SDS011;37694;51.748;14.326;2024-01-11T08:09:43;34.28;;;20.33;;
51612;SDS011;37694;51.748;14.326;2024-01-11T08:12:12;29.17;;;20.10;;
51612;SDS011;37694;51.748;14.326;2024-01-11T08:14:40;35.28;;;21.88;;
51612;SDS011;37694;51.748;14.326;2024-01-11T08:17:11;32.33;;;22.25;;
51612;SDS011;37694;51.748;14.326;2024-01-11T08:19:38;31.63;;;21.92;;
51612;SDS011;37694;51.748;14.326;2024-01-11T08:22:04;36.33;;;21.90;;
51612;SDS011;37694;51.748;14.326;2024-01-11T08:24:31;34.13;;;20.88;;
51612;SDS011;37694;51.748;14.326;2024-01-11T08:26:57;28.75;;;20.50;;
51612;SDS011;37694;51.748;14.326;2024-01-11T08:29:23;29.63;;;20.65;;
51612;SDS011;37694;51.748;14.326;2024-01-11T08:31:48;31.38;;;20.95;;
51612;SDS011;37694;51.748;14.326;2024-01-11T08:34:15;32.92;;;21.10;;
51612;SDS011;37694;51.748;14.326;2024-01-11T08:36:41;31.08;;;20.92;;
51612;SDS011;37694;51.748;14.326;2024-01-11T08:39:07;31.30;;;21.58;;
51612;SDS011;37694;51.748;14.326;2024-01-11T08:41:36;36.80;;;23.30;;
51612;SDS011;37694;51.748;14.326;2024-01-11T08:44:02;33.42;;;23.27;;
51612;SDS011;37694;51.748;14.326;2024-01-11T08:46:30;33.08;;;21.38;;
51612;SDS011;37694;51.748;14.326;2024-01-11T08:48:58;30.48;;;21.77;;
51612;SDS011;37694;51.748;14.326;2024-01-11T08:51:24;35.13;;;22.95;;
51612;SDS011;37694;51.748;14.326;2024-01-11T08:53:50;32.28;;;21.42;;
51612;SDS011;37694;51.748;14.326;2024-01-11T08:56:18;32.47;;;22.23;;
51612;SDS011;37694;51.748;14.326;2024-01-11T08:58:44;30.17;;;20.83;;
51612;SDS011;37694;51.748;14.326;2024-01-11T09:01:10;32.35;;;22.35;;
51612;SDS011;37694;51.748;14.326;2024-01-11T09:03:36;29.60;;;21.00;;
51612;SDS011;37694;51.748;14.326;2024-01-11T09:06:02;35.90;;;23.73;;
51612;SDS011;37694;51.748;14.326;2024-01-11T09:08:28;32.33;;;21.73;;
51612;SDS011;37694;51.748;14.326;2024-01-11T09:10:55;32.67;;;22.02;;
51612;SDS011;37694;51.748;14.326;2024-01-11T09:13:21;34.15;;;22.08;;
51612;SDS011;37694;51.748;14.326;2024-01-11T09:15:46;32.08;;;22.17;;
51612;SDS011;37694;51.748;14.326;2024-01-11T09:18:12;33.55;;;22.38;;
51612;SDS011;37694;51.748;14.326;2024-01-11T09:20:38;29.83;;;21.00;;
51612;SDS011;37694;51.748;14.326;2024-01-11T09:23:03;31.75;;;21.00;;
51612;SDS011;37694;51.748;14.326;2024-01-11T09:25:32;30.38;;;20.38;;
51612;SDS011;37694;51.748;14.326;2024-01-11T09:27:59;33.88;;;22.27;;
51612;SDS011;37694;51.748;14.326;2024-01-11T09:30:25;31.83;;;22.17;;
51612;SDS011;37694;51.748;14.326;2024-01-11T09:32:50;30.20;;;20.52;;
51612;SDS011;37694;51.748;14.326;2024-01-11T09:35:17;30.00;;;21.83;;
51612;SDS011;37694;51.748;14.326;2024-01-11T09:37:42;32.22;;;22.08;;
51612;SDS011;37694;51.748;14.326;2024-01-11T09:40:11;28.85;;;21.02;;
51612;SDS011;37694;51.748;14.326;2024-01-11T09:42:37;31.13;;;21.15;;
51612;SDS011;37694;51.748;14.326;2024-01-11T09:45:06;31.00;;;22.13;;
51612;SDS011;37694;51.748;14.326;2024-01-11T09:47:35;30.73;;;21.90;;
51612;SDS011;37694;51.748;14.326;2024-01-11T09:50:05;32.38;;;21.83;;
51612;SDS011;37694;51.748;14.326;2024-01-11T09:52:32;31.73;;;21.73;;
51612;SDS011;37694;51.748;14.326;2024-01-11T09:54:58;29.08;;;21.10;;
51612;SDS011;37694;51.748;14.326;2024-01-11T09:57:26;30.15;;;21.83;;
51612;SDS011;37694;51.748;14.326;2024-01-11T09:59:56;31.33;;;20.40;;
51612;SDS011;37694;51.748;14.326;2024-01-11T10:02:23;30.30;;;21.05;;
51612;SDS011;37694;51.748;14.326;2024-01-11T10:04:51;29.02;;;21.23;;
51612;SDS011;37694;51.748;14.326;2024-01-11T10:07:18;30.05;;;21.10;;
51612;SDS011;37694;51.748;14.326;2024-01-11T10:09:47;34.42;;;21.48;;
51612;SDS011;37694;51.748;14.326;2024-01-11T10:12:14;28.25;;;19.55;;
51612;SDS011;37694;51.748;14.326;2024-01-11T10:14:40;27.45;;;19.50;;
51612;SDS011;37694;51.748;14.326;2024-01-11T10:17:06;29.40;;;21.25;;
51612;SDS011;37694;51.748;14.326;2024-01-11T10:19:32;30.30;;;20.55;;
51612;SDS011;37694;51.748;14.326;2024-01-11T10:21:58;28.55;;;20.80;;
51612;SDS011;37694;51.748;14.326;2024-01-11T10:24:24;29.08;;;20.80;;
51612;SDS011;37694;51.748;14.326;2024-01-11T10:26:56;27.83;;;20.63;;
51612;SDS011;37694;51.748;14.326;2024-01-11T10:29:27;28.48;;;20.70;;
51612;SDS011;37694;51.748;14.326;2024-01-11T10:31:55;30.85;;;20.65;;
51612;SDS011;37694;51.748;14.326;2024-01-11T10:34:22;30.98;;;21.65;;
51612;SDS011;37694;51.748;14.326;2024-01-11T10:36:49;26.95;;;20.27;;
51612;SDS011;37694;51.748;14.326;2024-01-11T10:39:17;28.45;;;21.58;;
51612;SDS011;37694;51.748;14.326;2024-01-11T10:41:51;30.98;;;20.65;;
51612;SDS011;37694;51.748;14.326;2024-01-11T10:44:23;28.40;;;20.38;;
51612;SDS011;37694;51.748;14.326;2024-01-11T10:46:54;28.15;;;20.75;;
51612;SDS011;37694;51.748;14.326;2024-01-11T10:49:22;27.20;;;19.98;;
51612;SDS011;37694;51.748;14.326;2024-01-11T10:52:01;36.17;;;21.50;;
51612;SDS011;37694;51.748;14.326;2024-01-11T10:54:29;26.05;;;20.20;;
51612;SDS011;37694;51.748;14.326;2024-01-11T10:56:58;27.92;;;20.50;;
51612;SDS011;37694;51.748;14.326;2024-01-11T10:59:27;28.40;;;20.23;;
51612;SDS011;37694;51.748;14.326;2024-01-11T11:01:57;28.48;;;20.02;;
51612;SDS011;37694;51.748;14.326;2024-01-11T11:04:27;25.67;;;19.77;;
51612;SDS011;37694;51.748;14.326;2024-01-11T11:06:56;28.92;;;20.80;;
51612;SDS011;37694;51.748;14.326;2024-01-11T11:09:25;32.00;;;20.65;;
51612;SDS011;37694;51.748;14.326;2024-01-11T11:11:56;30.88;;;20.60;;
51612;SDS011;37694;51.748;14.326;2024-01-11T11:14:23;28.20;;;20.48;;
51612;SDS011;37694;51.748;14.326;2024-01-11T11:16:49;26.38;;;19.77;;
51612;SDS011;37694;51.748;14.326;2024-01-11T11:19:17;28.38;;;20.48;;
51612;SDS011;37694;51.748;14.326;2024-01-11T11:21:47;29.98;;;19.77;;
51612;SDS011;37694;51.748;14.326;2024-01-11T11:24:14;27.58;;;20.70;;
51612;SDS011;37694;51.748;14.326;2024-01-11T11:26:42;26.63;;;20.35;;
51612;SDS011;37694;51.748;14.326;2024-01-11T11:29:08;28.25;;;20.45;;
51612;SDS011;37694;51.748;14.326;2024-01-11T11:31:43;26.45;;;20.23;;
51612;SDS011;37694;51.748;14.326;2024-01-11T11:34:18;26.10;;;19.17;;
51612;SDS011;37694;51.748;14.326;2024-01-11T11:36:48;25.98;;;19.38;;
51612;SDS011;37694;51.748;14.326;2024-01-11T11:39:19;26.15;;;19.17;;
51612;SDS011;37694;51.748;14.326;2024-01-11T11:41:45;30.10;;;20.52;;
51612;SDS011;37694;51.748;14.326;2024-01-11T11:44:12;27.27;;;19.60;;
51612;SDS011;37694;51.748;14.326;2024-01-11T11:46:41;26.80;;;19.33;;
51612;SDS011;37694;51.748;14.326;2024-01-11T11:49:06;29.13;;;19.52;;
51612;SDS011;37694;51.748;14.326;2024-01-11T11:51:32;27.30;;;18.23;;
51612;SDS011;37694;51.748;14.326;2024-01-11T11:53:59;27.13;;;18.88;;
51612;SDS011;37694;51.748;14.326;2024-01-11T11:56:27;25.67;;;18.95;;
51612;SDS011;37694;51.748;14.326;2024-01-11T11:58:55;26.80;;;19.00;;
51612;SDS011;37694;51.748;14.326;2024-01-11T12:01:21;26.38;;;18.80;;
51612;SDS011;37694;51.748;14.326;2024-01-11T12:03:47;25.75;;;18.77;;
51612;SDS011;37694;51.748;14.326;2024-01-11T12:06:16;25.38;;;17.42;;
51612;SDS011;37694;51.748;14.326;2024-01-11T12:08:43;23.15;;;17.25;;
51612;SDS011;37694;51.748;14.326;2024-01-11T12:11:12;25.65;;;18.13;;
51612;SDS011;37694;51.748;14.326;2024-01-11T12:13:39;21.88;;;16.50;;
51612;SDS011;37694;51.748;14.326;2024-01-11T12:16:05;25.90;;;18.05;;
51612;SDS011;37694;51.748;14.326;2024-01-11T12:18:31;23.65;;;18.05;;
51612;SDS011;37694;51.748;14.326;2024-01-11T12:20:57;22.25;;;16.33;;
51612;SDS011;37694;51.748;14.326;2024-01-11T12:23:23;22.73;;;17.30;;
51612;SDS011;37694;51.748;14.326;2024-01-11T12:25:48;25.23;;;18.00;;
51612;SDS011;37694;51.748;14.326;2024-01-11T12:28:14;24.48;;;17.75;;
51612;SDS011;37694;51.748;14.326;2024-01-11T12:30:40;24.25;;;18.20;;
51612;SDS011;37694;51.748;14.326;2024-01-11T12:33:07;22.70;;;16.90;;
51612;SDS011;37694;51.748;14.326;2024-01-11T12:35:33;21.05;;;16.77;;
51612;SDS011;37694;51.748;14.326;2024-01-11T12:37:59;22.63;;;16.85;;
51612;SDS011;37694;51.748;14.326;2024-01-11T12:40:29;22.42;;;16.55;;
51612;SDS011;37694;51.748;14.326;2024-01-11T12:42:57;24.52;;;18.13;;
51612;SDS011;37694;51.748;14.326;2024-01-11T12:45:24;25.75;;;18.55;;
51612;SDS011;37694;51.748;14.326;2024-01-11T12:47:54;24.58;;;17.60;;
51612;SDS011;37694;51.748;14.326;2024-01-11T12:50:22;25.58;;;17.65;;
51612;SDS011;37694;51.748;14.326;2024-01-11T12:53:07;22.70;;;16.88;;
51612;SDS011;37694;51.748;14.326;2024-01-11T12:55:35;24.70;;;17.38;;
51612;SDS011;37694;51.748;14.326;2024-01-11T12:58:04;23.48;;;16.77;;
51612;SDS011;37694;51.748;14.326;2024-01-11T13:00:31;22.00;;;15.93;;
51612;SDS011;37694;51.748;14.326;2024-01-11T13:02:57;22.70;;;17.50;;
51612;SDS011;37694;51.748;14.326;2024-01-11T13:05:23;24.30;;;16.35;;
51612;SDS011;37694;51.748;14.326;2024-01-11T13:07:50;24.77;;;16.05;;
51612;SDS011;37694;51.748;14.326;2024-01-11T13:10:16;20.25;;;15.10;;
51612;SDS011;37694;51.748;14.326;2024-01-11T13:12:42;20.10;;;15.65;;
51612;SDS011;37694;51.748;14.326;2024-01-11T13:15:07;20.15;;;15.95;;
51612;SDS011;37694;51.748;14.326;2024-01-11T13:17:33;23.08;;;16.23;;
51612;SDS011;37694;51.748;14.326;2024-01-11T13:19:59;22.65;;;15.68;;
51612;SDS011;37694;51.748;14.326;2024-01-11T13:22:26;23.35;;;17.17;;
51612;SDS011;37694;51.748;14.326;2024-01-11T13:24:52;22.35;;;16.67;;
51612;SDS011;37694;51.748;14.326;2024-01-11T13:27:18;21.50;;;15.38;;
51612;SDS011;37694;51.748;14.326;2024-01-11T13:29:43;21.40;;;15.88;;
51612;SDS011;37694;51.748;14.326;2024-01-11T13:32:09;20.08;;;15.63;;
51612;SDS011;37694;51.748;14.326;2024-01-11T13:34:35;23.15;;;15.63;;
51612;SDS011;37694;51.748;14.326;2024-01-11T13:37:04;19.42;;;14.73;;
51612;SDS011;37694;51.748;14.326;2024-01-11T13:39:30;19.17;;;15.10;;
51612;SDS011;37694;51.748;14.326;2024-01-11T13:41:56;21.48;;;16.02;;
51612;SDS011;37694;51.748;14.326;2024-01-11T13:44:22;21.08;;;15.90;;
51612;SDS011;37694;51.748;14.326;2024-01-11T13:46:47;23.15;;;14.27;;
51612;SDS011;37694;51.748;14.326;2024-01-11T13:49:13;19.95;;;14.95;;
51612;SDS011;37694;51.748;14.326;2024-01-11T13:51:38;20.42;;;15.00;;
51612;SDS011;37694;51.748;14.326;2024-01-11T13:54:04;21.23;;;14.45;;
51612;SDS011;37694;51.748;14.326;2024-01-11T13:56:30;19.05;;;13.88;;
51612;SDS011;37694;51.748;14.326;2024-01-11T13:58:56;18.50;;;14.35;;
51612;SDS011;37694;51.748;14.326;2024-01-11T14:01:21;18.58;;;14.65;;
51612;SDS011;37694;51.748;14.326;2024-01-11T14:03:47;20.25;;;14.32;;
51612;SDS011;37694;51.748;14.326;2024-01-11T14:06:13;20.58;;;14.32;;
51612;SDS011;37694;51.748;14.326;2024-01-11T14:08:40;21.27;;;14.95;;